Time;durP1;ratioP1;P1;durP2;ratioP2;P2;SDS_P1;SDS_P2;PMS_P1;PMS_P2;Temp;Humidity;BMP_temperature;BMP_pressure;BME280_temperature;BME280_humidity;BME280_pressure;Samples;Min_cycle;Max_cycle;Signal;HPM_P1;HPM_P2
2023/12/15 00:01:38;;;;;;;15.30;7.60;;;4.40;99.90;;;;;;4981565;28;20025;-90
2023/12/15 00:04:05;;;;;;;30.05;14.30;;;4.30;99.90;;;;;;4992942;28;20044;-89
2023/12/15 00:06:31;;;;;;;15.45;6.50;;;4.20;99.90;;;;;;4978797;28;20043;-89
2023/12/15 00:08:56;;;;;;;25.83;9.55;;;4.30;99.90;;;;;;4976379;28;20033;-88
2023/12/15 00:11:24;;;;;;;32.25;14.23;;;4.30;99.90;;;;;;5003207;28;20098;-89
2023/12/15 00:13:50;;;;;;;29.67;14.60;;;4.30;99.90;;;;;;4992710;28;20103;-89
2023/12/15 00:16:15;;;;;;;31.00;15.32;;;4.30;99.90;;;;;;5008384;28;20029;-88
2023/12/15 00:18:42;;;;;;;33.17;15.13;;;4.30;99.90;;;;;;5009166;28;20017;-87
2023/12/15 00:21:08;;;;;;;34.10;15.15;;;4.40;99.90;;;;;;5007113;28;20032;-86
2023/12/15 00:23:34;;;;;;;30.63;14.25;;;4.30;99.90;;;;;;4980042;28;20049;-86
2023/12/15 00:26:00;;;;;;;28.45;14.50;;;4.30;99.90;;;;;;4991742;28;20057;-86
2023/12/15 00:28:25;;;;;;;22.67;11.90;;;4.30;99.90;;;;;;4973784;28;20045;-86
2023/12/15 00:30:51;;;;;;;31.13;14.00;;;4.30;99.90;;;;;;4973405;28;20033;-86
2023/12/15 00:33:19;;;;;;;26.58;14.25;;;4.30;99.90;;;;;;4973020;28;20033;-86
2023/12/15 00:35:46;;;;;;;27.10;14.50;;;4.40;99.90;;;;;;4998167;28;20740;-86
2023/12/15 00:38:12;;;;;;;31.10;15.05;;;4.30;99.90;;;;;;4974825;28;20397;-86
2023/12/15 00:40:37;;;;;;;24.27;12.68;;;4.40;99.90;;;;;;4973785;28;20028;-87
2023/12/15 00:43:03;;;;;;;11.50;6.05;;;4.40;99.90;;;;;;4988993;28;20044;-86
2023/12/15 00:45:28;;;;;;;23.77;13.75;;;4.50;99.90;;;;;;4991009;28;20422;-86
2023/12/15 00:47:54;;;;;;;27.50;15.52;;;4.50;99.90;;;;;;4969807;28;20465;-86
2023/12/15 00:50:20;;;;;;;28.85;13.85;;;4.50;99.90;;;;;;4990378;28;20029;-86
2023/12/15 00:52:45;;;;;;;28.85;14.68;;;4.50;99.90;;;;;;4989685;28;20091;-86
2023/12/15 00:55:11;;;;;;;24.30;13.05;;;4.60;99.90;;;;;;5004958;28;20040;-87
2023/12/15 00:57:37;;;;;;;36.90;17.40;;;4.50;99.90;;;;;;4971802;28;20048;-89
2023/12/15 01:00:03;;;;;;;32.00;16.33;;;4.50;99.90;;;;;;5007130;28;20044;-87
2023/12/15 01:02:28;;;;;;;27.70;13.68;;;4.50;99.90;;;;;;4998981;28;20147;-90
2023/12/15 01:04:54;;;;;;;32.53;13.32;;;4.50;99.90;;;;;;4977491;28;20054;-87
2023/12/15 01:07:20;;;;;;;29.77;14.90;;;4.60;99.90;;;;;;4992914;28;20033;-90
2023/12/15 01:09:45;;;;;;;30.60;11.38;;;4.60;99.90;;;;;;5005087;28;20030;-86
2023/12/15 01:12:11;;;;;;;24.10;13.60;;;4.60;99.90;;;;;;4992570;28;20034;-86
2023/12/15 01:14:36;;;;;;;27.15;13.13;;;4.60;99.90;;;;;;4974757;28;20128;-86
2023/12/15 01:17:02;;;;;;;26.77;13.38;;;4.60;99.90;;;;;;5007093;28;21572;-86
2023/12/15 01:19:27;;;;;;;26.80;13.20;;;4.60;99.90;;;;;;5008709;28;20605;-87
2023/12/15 01:21:53;;;;;;;25.63;12.25;;;4.70;99.90;;;;;;5003749;28;20037;-86
2023/12/15 01:24:19;;;;;;;23.02;12.02;;;4.60;99.90;;;;;;5002164;28;20025;-86
2023/12/15 01:26:44;;;;;;;24.45;11.77;;;4.60;99.90;;;;;;5005780;28;20021;-86
2023/12/15 01:29:10;;;;;;;27.45;13.88;;;4.70;99.90;;;;;;5000631;28;20032;-84
2023/12/15 01:31:35;;;;;;;26.27;13.50;;;4.70;99.90;;;;;;4981552;28;20041;-87
2023/12/15 01:34:01;;;;;;;26.45;13.30;;;4.70;99.90;;;;;;5012268;28;20453;-87
2023/12/15 01:36:28;;;;;;;25.65;12.50;;;4.70;99.90;;;;;;5011333;28;20032;-86
2023/12/15 01:38:53;;;;;;;26.77;13.95;;;4.70;99.90;;;;;;4992421;28;20424;-87
2023/12/15 01:41:19;;;;;;;24.83;13.27;;;4.70;99.90;;;;;;5013324;28;20052;-87
2023/12/15 01:43:44;;;;;;;25.50;13.90;;;4.70;99.90;;;;;;5015271;28;20044;-86
2023/12/15 01:46:10;;;;;;;24.67;11.95;;;4.80;99.90;;;;;;4981889;28;20483;-86
2023/12/15 01:48:36;;;;;;;21.15;12.85;;;4.80;99.90;;;;;;5011280;28;20037;-87
2023/12/15 01:51:02;;;;;;;24.23;11.60;;;4.80;99.90;;;;;;4993438;28;20037;-86
2023/12/15 01:53:27;;;;;;;27.25;12.52;;;4.80;99.90;;;;;;4996097;28;20034;-86
2023/12/15 01:55:53;;;;;;;25.08;12.30;;;4.90;99.90;;;;;;4992267;28;20053;-86
2023/12/15 01:58:18;;;;;;;12.18;6.85;;;4.80;99.90;;;;;;5011477;28;20079;-90
2023/12/15 02:00:47;;;;;;;29.23;15.10;;;4.90;99.90;;;;;;4996593;28;20041;-90
2023/12/15 02:03:13;;;;;;;21.25;12.48;;;4.90;99.90;;;;;;4983742;28;20045;-90
2023/12/15 02:05:39;;;;;;;5.90;3.13;;;4.90;99.90;;;;;;4994238;28;20539;-88
2023/12/15 02:08:12;;;;;;;24.17;14.25;;;4.90;99.90;;;;;;4987795;28;20044;-87
2023/12/15 02:10:40;;;;;;;20.98;12.75;;;4.90;99.90;;;;;;5001376;28;20094;-88
2023/12/15 02:13:20;;;;;;;25.80;13.05;;;4.90;99.90;;;;;;4928590;28;20719;-90
2023/12/15 02:15:45;;;;;;;26.33;11.55;;;5.00;99.90;;;;;;4969556;28;20428;-88
2023/12/15 02:18:14;;;;;;;26.00;13.48;;;4.90;99.90;;;;;;4999630;28;20099;-89
2023/12/15 02:20:39;;;;;;;26.73;13.32;;;4.90;99.90;;;;;;4963375;28;20062;-89
2023/12/15 02:23:05;;;;;;;25.42;13.32;;;5.00;99.90;;;;;;4991881;28;20049;-89
2023/12/15 02:25:31;;;;;;;26.83;12.50;;;5.00;99.90;;;;;;4993340;28;20056;-87
2023/12/15 02:27:56;;;;;;;22.63;12.65;;;5.00;99.90;;;;;;5007075;28;20037;-87
2023/12/15 02:30:25;;;;;;;27.58;12.88;;;5.00;99.90;;;;;;5008350;28;20030;-89
2023/12/15 02:33:12;;;;;;;19.05;8.27;;;5.10;99.90;;;;;;4987430;28;20429;-89
2023/12/15 02:35:39;;;;;;;29.75;13.20;;;5.00;99.90;;;;;;4997743;28;21357;-89
2023/12/15 02:38:12;;;;;;;26.23;13.35;;;5.10;99.90;;;;;;5001548;28;20056;-89
2023/12/15 02:40:44;;;;;;;35.92;16.08;;;5.00;99.90;;;;;;4977210;28;20540;-90
2023/12/15 02:43:24;;;;;;;18.10;8.63;;;5.10;99.90;;;;;;4982591;28;20093;-88
2023/12/15 02:45:50;;;;;;;25.75;13.23;;;5.10;99.90;;;;;;4964664;28;20030;-89
2023/12/15 02:48:16;;;;;;;35.25;16.33;;;5.10;99.90;;;;;;4970080;28;20049;-87
2023/12/15 02:50:42;;;;;;;23.98;12.73;;;5.00;99.90;;;;;;5012828;28;20120;-89
2023/12/15 02:53:08;;;;;;;24.08;12.68;;;5.10;99.90;;;;;;5012764;28;20043;-89
2023/12/15 02:55:34;;;;;;;31.48;14.65;;;5.10;99.90;;;;;;4991645;28;20026;-90
2023/12/15 02:57:59;;;;;;;21.00;9.50;;;5.10;99.90;;;;;;4990472;28;20052;-86
2023/12/15 03:00:25;;;;;;;30.80;13.10;;;5.10;99.90;;;;;;4978504;28;20029;-89
2023/12/15 03:02:51;;;;;;;25.45;13.00;;;5.10;99.90;;;;;;4981988;28;20092;-90
2023/12/15 03:05:16;;;;;;;32.67;14.40;;;5.10;99.90;;;;;;4979067;28;20072;-86
2023/12/15 03:07:42;;;;;;;25.42;11.27;;;5.10;99.90;;;;;;4960936;28;20043;-89
2023/12/15 03:10:08;;;;;;;27.25;14.90;;;5.10;99.90;;;;;;5022806;28;20083;-85
2023/12/15 03:12:39;;;;;;;17.58;9.13;;;5.10;99.90;;;;;;5005451;28;20121;-89
2023/12/15 03:15:05;;;;;;;27.70;14.57;;;5.10;99.90;;;;;;4986821;28;20030;-89
2023/12/15 03:17:43;;;;;;;18.13;8.80;;;5.10;99.90;;;;;;4982149;28;20047;-86
2023/12/15 03:20:29;;;;;;;31.00;17.40;;;5.10;99.90;;;;;;5003365;28;20057;-86
2023/12/15 03:23:14;;;;;;;17.73;9.82;;;5.10;99.90;;;;;;4988360;28;20025;-86
2023/12/15 03:25:48;;;;;;;30.53;13.47;;;5.10;99.90;;;;;;4966365;28;20056;-85
2023/12/15 03:31:25;;;;;;;33.17;17.10;;;5.20;99.90;;;;;;4976867;28;20076;-85
2023/12/15 03:33:51;;;;;;;15.18;7.72;;;5.10;99.90;;;;;;4968086;28;20038;-85
2023/12/15 03:36:35;;;;;;;23.70;11.95;;;5.20;99.90;;;;;;4987322;28;20053;-86
2023/12/15 03:39:03;;;;;;;31.35;15.65;;;5.10;99.90;;;;;;4971601;28;20505;-88
2023/12/15 03:41:35;;;;;;;34.72;16.60;;;5.20;99.90;;;;;;5000967;28;20036;-89
2023/12/15 03:44:11;;;;;;;16.85;7.68;;;5.20;99.90;;;;;;4971674;28;20412;-88
2023/12/15 03:46:42;;;;;;;17.67;9.15;;;5.20;99.90;;;;;;4994037;28;20033;-89
2023/12/15 03:49:08;;;;;;;25.83;13.65;;;5.30;99.90;;;;;;4983260;28;20168;-86
2023/12/15 03:51:34;;;;;;;22.77;10.60;;;5.30;99.90;;;;;;4942883;28;20480;-89
2023/12/15 03:54:02;;;;;;;29.98;13.60;;;5.30;99.90;;;;;;4974939;28;20025;-88
2023/12/15 03:56:28;;;;;;;17.58;7.78;;;5.30;99.90;;;;;;4991793;28;20044;-86
2023/12/15 03:58:56;;;;;;;19.98;10.13;;;5.40;99.90;;;;;;4991110;28;20041;-86
2023/12/15 04:01:22;;;;;;;29.20;13.90;;;5.40;99.90;;;;;;4991168;28;20034;-86
2023/12/15 04:03:47;;;;;;;18.38;9.98;;;5.40;99.90;;;;;;4994926;28;20038;-86
2023/12/15 04:06:13;;;;;;;26.02;11.23;;;5.40;99.90;;;;;;4996261;28;20034;-86
2023/12/15 04:08:42;;;;;;;30.38;16.75;;;5.40;99.90;;;;;;4993368;28;20059;-86
2023/12/15 04:11:08;;;;;;;29.02;13.70;;;5.40;99.90;;;;;;5003818;28;20065;-86
2023/12/15 04:13:34;;;;;;;28.27;15.10;;;5.40;99.90;;;;;;5008777;28;20077;-86
2023/12/15 04:15:59;;;;;;;27.67;12.98;;;5.50;99.90;;;;;;4990137;28;20685;-86
2023/12/15 04:18:25;;;;;;;33.17;16.52;;;5.50;99.90;;;;;;4978609;28;20452;-86
2023/12/15 04:20:51;;;;;;;25.67;13.30;;;5.50;99.90;;;;;;4973834;28;20538;-85
2023/12/15 04:23:16;;;;;;;22.15;9.80;;;5.40;99.90;;;;;;4975048;28;20228;-86
2023/12/15 04:25:42;;;;;;;26.90;13.65;;;5.40;99.90;;;;;;4974628;28;20106;-86
2023/12/15 04:28:08;;;;;;;33.95;17.80;;;5.50;99.90;;;;;;4974695;28;20037;-86
2023/12/15 04:30:38;;;;;;;28.90;14.43;;;5.40;99.90;;;;;;4991679;28;20034;-85
2023/12/15 04:33:06;;;;;;;31.45;14.63;;;5.40;99.90;;;;;;5006953;28;20037;-87
2023/12/15 04:35:32;;;;;;;37.45;17.10;;;5.50;99.90;;;;;;4990653;28;20036;-87
2023/12/15 04:38:06;;;;;;;14.98;7.82;;;5.50;99.90;;;;;;4973834;28;20030;-87
2023/12/15 04:40:34;;;;;;;21.58;11.43;;;5.50;99.90;;;;;;4981118;28;20243;-87
2023/12/15 04:43:00;;;;;;;27.73;12.75;;;5.50;99.90;;;;;;4974262;28;20045;-86
2023/12/15 04:45:26;;;;;;;28.35;12.13;;;5.50;99.90;;;;;;4968329;28;20033;-86
2023/12/15 04:47:53;;;;;;;25.73;13.25;;;5.60;99.90;;;;;;4991961;28;20101;-87
2023/12/15 04:50:21;;;;;;;28.35;14.07;;;5.60;99.90;;;;;;4990882;28;20038;-87
2023/12/15 04:52:46;;;;;;;24.95;11.63;;;5.60;99.90;;;;;;4989944;28;20057;-87
2023/12/15 04:55:12;;;;;;;34.45;14.65;;;5.60;99.90;;;;;;5004138;28;20053;-87
2023/12/15 04:57:38;;;;;;;34.55;16.88;;;5.60;99.90;;;;;;5005445;28;20048;-87
2023/12/15 05:00:15;;;;;;;19.52;7.88;;;5.60;99.90;;;;;;4964755;28;20101;-87
2023/12/15 05:02:40;;;;;;;33.80;15.13;;;5.60;99.90;;;;;;4960332;28;20045;-87
2023/12/15 05:05:13;;;;;;;21.13;9.93;;;5.60;99.90;;;;;;4991656;28;20032;-86
2023/12/15 05:07:39;;;;;;;33.38;16.38;;;5.60;99.90;;;;;;5009649;23;20041;-86
2023/12/15 05:10:25;;;;;;;29.40;16.52;;;5.60;99.90;;;;;;4965235;28;20036;-86
2023/12/15 05:12:58;;;;;;;12.93;6.35;;;5.60;99.90;;;;;;5025576;28;20033;-86
2023/12/15 05:15:24;;;;;;;31.90;16.83;;;5.70;99.90;;;;;;4989496;28;20037;-86
2023/12/15 05:18:13;;;;;;;24.27;12.00;;;5.60;99.90;;;;;;5024432;28;20033;-86
2023/12/15 05:20:45;;;;;;;30.42;12.82;;;5.60;99.90;;;;;;4998573;28;20036;-86
2023/12/15 05:23:14;;;;;;;29.20;15.07;;;5.60;99.90;;;;;;5011119;28;20500;-86
2023/12/15 05:25:58;;;;;;;18.48;9.95;;;5.70;99.90;;;;;;4982421;28;20117;-86
2023/12/15 05:28:44;;;;;;;30.75;13.57;;;5.70;99.90;;;;;;4972653;28;20067;-86
2023/12/15 05:31:10;;;;;;;27.63;13.45;;;5.70;99.90;;;;;;4992507;28;20033;-86
2023/12/15 05:33:35;;;;;;;34.80;16.35;;;5.70;99.90;;;;;;4994444;28;20094;-87
2023/12/15 05:36:03;;;;;;;32.13;14.48;;;5.70;99.90;;;;;;5004407;28;20037;-86
2023/12/15 05:38:29;;;;;;;30.58;14.40;;;5.70;99.90;;;;;;5007365;28;20075;-87
2023/12/15 05:40:55;;;;;;;32.85;14.98;;;5.70;99.90;;;;;;4996032;28;20057;-87
2023/12/15 05:43:45;;;;;;;28.80;14.45;;;5.70;99.90;;;;;;4983457;28;20040;-87
2023/12/15 05:46:14;;;;;;;22.52;11.48;;;5.70;99.90;;;;;;5035751;28;20033;-88
2023/12/15 05:48:40;;;;;;;24.83;10.90;;;5.70;99.90;;;;;;4976435;28;20393;-89
2023/12/15 05:51:06;;;;;;;35.92;15.43;;;5.70;99.90;;;;;;4979512;28;20124;-88
2023/12/15 05:53:47;;;;;;;32.40;16.20;;;5.70;99.90;;;;;;4952524;28;20577;-88
2023/12/15 05:56:24;;;;;;;35.72;16.38;;;5.70;99.90;;;;;;4958432;28;20051;-88
2023/12/15 05:58:49;;;;;;;28.13;14.40;;;5.70;99.90;;;;;;4941038;28;20073;-89
2023/12/15 06:01:50;;;;;;;22.65;10.55;;;5.70;99.90;;;;;;4973384;28;20037;-87
2023/12/15 06:04:19;;;;;;;29.15;12.00;;;5.70;99.90;;;;;;4966853;28;20801;-89
2023/12/15 06:06:44;;;;;;;20.58;9.88;;;5.70;99.90;;;;;;4923619;28;20473;-88
2023/12/15 06:09:12;;;;;;;44.28;19.35;;;5.80;99.90;;;;;;4918824;28;20043;-89
2023/12/15 06:11:44;;;;;;;29.45;12.05;;;5.70;99.90;;;;;;4935113;28;20031;-89
2023/12/15 06:14:32;;;;;;;22.25;10.82;;;5.70;99.90;;;;;;4893631;28;20031;-85
2023/12/15 06:17:08;;;;;;;;;;;;;;;;;;;;;
2023/12/15 06:19:40;;;;;;;15.52;7.80;;;5.90;99.90;;;;;;4999601;28;20043;-88
2023/12/15 06:22:12;;;;;;;36.65;16.33;;;5.80;99.90;;;;;;4991591;28;20068;-88
2023/12/15 06:24:56;;;;;;;32.85;14.05;;;5.80;99.90;;;;;;4994632;28;20044;-89
2023/12/15 06:27:24;;;;;;;15.60;7.78;;;5.80;99.90;;;;;;5002260;28;20033;-89
2023/12/15 06:30:00;;;;;;;37.78;16.70;;;5.80;99.90;;;;;;5014426;28;20387;-89
2023/12/15 06:32:34;;;;;;;25.40;11.57;;;5.90;99.90;;;;;;4984823;28;20944;-88
2023/12/15 06:35:00;;;;;;;17.20;9.20;;;5.90;99.90;;;;;;4980642;28;20026;-86
2023/12/15 06:37:26;;;;;;;45.72;20.73;;;5.90;99.90;;;;;;5005959;28;20037;-88
2023/12/15 06:39:52;;;;;;;35.50;15.10;;;5.90;99.90;;;;;;4976912;28;20124;-88
2023/12/15 06:42:24;;;;;;;27.88;10.60;;;5.90;99.90;;;;;;4983413;28;20041;-88
2023/12/15 06:45:35;;;;;;;39.50;17.73;;;5.90;99.90;;;;;;4959173;28;20038;-90
2023/12/15 06:48:01;;;;;;;34.72;14.43;;;5.90;99.90;;;;;;4971907;28;20555;-88
2023/12/15 06:50:32;;;;;;;31.17;14.35;;;5.90;99.90;;;;;;4928574;28;20041;-85
2023/12/15 06:53:17;;;;;;;32.22;14.25;;;5.90;99.90;;;;;;4898100;28;20109;-88
2023/12/15 06:55:44;;;;;;;32.88;15.60;;;5.90;99.90;;;;;;4930485;28;20565;-88
2023/12/15 06:58:39;;;;;;;30.55;15.38;;;5.90;99.90;;;;;;4934994;28;20117;-88
2023/12/15 07:01:05;;;;;;;22.63;9.05;;;5.90;99.90;;;;;;4971761;28;20041;-89
2023/12/15 07:04:05;;;;;;;43.28;18.98;;;5.90;99.90;;;;;;4958411;28;20040;-88
2023/12/15 07:06:49;;;;;;;42.65;19.83;;;6.00;99.90;;;;;;5011982;28;20112;-89
2023/12/15 07:09:29;;;;;;;44.00;18.77;;;5.90;99.90;;;;;;4971608;28;20037;-89
2023/12/15 07:12:08;;;;;;;40.70;17.17;;;6.00;99.90;;;;;;5007775;28;20228;-90
2023/12/15 07:14:45;;;;;;;36.80;15.95;;;6.00;99.90;;;;;;4978207;28;20116;-90
2023/12/15 07:18:21;;;;;;;;;;;;;;;;;;;;;
2023/12/15 07:20:49;;;;;;;35.38;17.48;;;6.10;99.90;;;;;;4891806;28;20250;-89
2023/12/15 07:23:26;;;;;;;44.25;20.85;;;6.10;99.90;;;;;;4875801;28;20051;-90
2023/12/15 07:25:52;;;;;;;50.78;21.95;;;6.10;99.90;;;;;;4972483;28;20477;-88
2023/12/15 07:28:18;;;;;;;46.55;20.90;;;6.10;99.90;;;;;;5010299;28;20040;-89
2023/12/15 07:30:44;;;;;;;39.50;16.73;;;6.10;99.90;;;;;;4962734;28;20045;-88
2023/12/15 07:33:09;;;;;;;42.30;19.38;;;6.10;99.90;;;;;;4990507;28;20052;-88
2023/12/15 07:35:38;;;;;;;35.20;15.43;;;6.10;99.90;;;;;;4984527;28;20033;-88
2023/12/15 07:38:03;;;;;;;28.00;11.23;;;6.10;99.90;;;;;;4996458;28;20119;-88
2023/12/15 07:41:30;;;;;;;38.85;17.17;;;6.10;99.90;;;;;;4964019;28;20479;-89
2023/12/15 07:43:55;;;;;;;36.50;15.90;;;6.10;99.90;;;;;;4995583;28;20044;-88
2023/12/15 07:46:45;;;;;;;44.58;17.08;;;6.10;99.90;;;;;;4985721;28;20208;-90
2023/12/15 07:49:43;;;;;;;42.15;17.90;;;6.10;99.90;;;;;;4957054;28;20035;-89
2023/12/15 07:52:42;;;;;;;50.97;20.42;;;6.20;99.90;;;;;;4943756;28;20172;-89
2023/12/15 07:55:22;;;;;;;28.20;13.57;;;6.20;99.90;;;;;;4920297;28;20070;-89
2023/12/15 08:00:41;;;;;;;52.92;22.08;;;6.20;99.90;;;;;;4979457;28;20119;-90
2023/12/15 08:03:07;;;;;;;56.30;23.27;;;6.20;99.90;;;;;;5008768;28;20436;-89
2023/12/15 08:05:35;;;;;;;46.20;20.05;;;6.20;99.90;;;;;;4982881;28;20040;-89
2023/12/15 08:08:02;;;;;;;43.22;18.55;;;6.20;99.90;;;;;;5006262;28;20120;-87
2023/12/15 08:10:29;;;;;;;40.53;19.27;;;6.20;99.90;;;;;;4998039;28;20476;-87
2023/12/15 08:12:55;;;;;;;37.83;15.15;;;6.40;99.90;;;;;;4999446;28;20113;-87
2023/12/15 08:15:29;;;;;;;38.80;17.33;;;6.30;99.90;;;;;;4996738;28;20120;-88
2023/12/15 08:17:56;;;;;;;46.03;19.80;;;6.30;99.90;;;;;;4992671;28;20406;-85
2023/12/15 08:20:22;;;;;;;32.22;12.40;;;6.30;99.90;;;;;;4984807;28;20914;-85
2023/12/15 08:22:48;;;;;;;35.83;14.00;;;6.20;99.90;;;;;;4965686;28;20044;-87
2023/12/15 08:25:16;;;;;;;46.35;18.10;;;6.40;99.90;;;;;;4992241;28;20149;-87
2023/12/15 08:27:42;;;;;;;47.42;19.85;;;6.40;99.90;;;;;;4982630;28;20037;-88
2023/12/15 08:30:08;;;;;;;38.10;17.90;;;6.40;99.90;;;;;;4982288;28;20358;-87
2023/12/15 08:32:41;;;;;;;44.85;18.65;;;6.40;99.90;;;;;;5001222;28;20675;-87
2023/12/15 08:35:19;;;;;;;56.78;24.52;;;6.40;99.90;;;;;;5010058;28;20030;-87
2023/12/15 08:37:45;;;;;;;41.22;17.08;;;6.40;99.90;;;;;;4968766;28;20049;-87
2023/12/15 08:40:11;;;;;;;34.83;12.93;;;6.50;99.90;;;;;;4981067;28;20460;-87
2023/12/15 08:42:37;;;;;;;40.75;18.10;;;6.50;99.90;;;;;;5019621;28;20103;-87
2023/12/15 08:45:06;;;;;;;47.03;19.25;;;6.50;99.90;;;;;;4969330;28;20025;-86
2023/12/15 08:47:32;;;;;;;37.65;14.60;;;6.50;99.90;;;;;;4985327;28;20030;-86
2023/12/15 08:49:58;;;;;;;54.63;19.20;;;6.50;99.90;;;;;;5000275;28;20025;-86
2023/12/15 08:52:27;;;;;;;33.25;10.88;;;6.60;99.90;;;;;;4979092;28;20525;-86
2023/12/15 08:54:52;;;;;;;42.38;17.73;;;6.60;99.90;;;;;;5001814;28;20098;-85
2023/12/15 08:58:10;;;;;;;44.38;17.42;;;6.70;99.90;;;;;;4975967;28;20043;-87
2023/12/15 09:01:19;;;;;;;57.33;21.23;;;6.70;99.90;;;;;;4964572;28;20128;-87
2023/12/15 09:04:03;;;;;;;49.85;18.02;;;6.80;99.90;;;;;;5010671;28;20033;-87
2023/12/15 09:19:24;;;;;;;59.75;23.45;;;6.90;99.90;;;;;;5034035;28;20068;-88
2023/12/15 09:21:58;;;;;;;54.10;22.10;;;7.00;99.90;;;;;;4990652;28;20035;-86
2023/12/15 09:24:28;;;;;;;39.92;15.90;;;7.00;99.90;;;;;;4985858;28;20037;-86
2023/12/15 09:27:11;;;;;;;31.92;11.57;;;6.90;99.90;;;;;;4962662;28;20036;-86
2023/12/15 09:29:39;;;;;;;59.25;21.55;;;7.10;99.90;;;;;;4965948;28;20058;-86
2023/12/15 09:39:32;;;;;;;54.97;20.77;;;7.00;99.90;;;;;;4920318;28;20425;-85
2023/12/15 09:42:09;;;;;;;45.88;14.40;;;7.00;99.90;;;;;;4949794;28;20033;-84
2023/12/15 09:44:35;;;;;;;60.60;20.52;;;7.10;99.90;;;;;;4972840;28;20041;-85
2023/12/15 09:47:03;;;;;;;54.53;17.60;;;7.10;99.90;;;;;;4985759;28;20052;-84
2023/12/15 09:49:29;;;;;;;56.72;21.48;;;7.10;99.90;;;;;;4999814;28;20484;-84
2023/12/15 09:51:55;;;;;;;50.20;20.85;;;7.20;99.90;;;;;;4994006;28;20040;-85
2023/12/15 09:54:47;;;;;;;47.05;16.98;;;7.20;99.90;;;;;;5022876;28;20135;-86
2023/12/15 09:57:22;;;;;;;58.75;20.88;;;7.20;99.90;;;;;;5005991;28;20032;-86
2023/12/15 09:59:59;;;;;;;42.42;13.43;;;7.20;99.90;;;;;;4960552;28;20033;-85
2023/12/15 10:02:45;;;;;;;53.85;21.25;;;7.20;99.90;;;;;;4982405;28;20547;-85
2023/12/15 10:05:21;;;;;;;58.58;21.90;;;7.20;99.90;;;;;;4963637;28;20095;-85
2023/12/15 10:11:29;;;;;;;60.40;21.88;;;7.30;99.90;;;;;;4999958;28;20424;-85
2023/12/15 10:14:07;;;;;;;17.33;7.18;;;7.30;99.90;;;;;;4988316;28;22151;-85
2023/12/15 10:19:29;;;;;;;55.72;21.98;;;7.30;99.90;;;;;;4990941;28;20522;-85
2023/12/15 10:21:55;;;;;;;51.63;19.27;;;7.50;99.90;;;;;;4999069;28;20578;-85
2023/12/15 10:24:27;;;;;;;52.75;21.15;;;7.50;99.90;;;;;;5002437;28;20496;-86
2023/12/15 10:27:03;;;;;;;52.40;19.52;;;7.50;99.90;;;;;;4981060;28;20041;-85
2023/12/15 10:29:53;;;;;;;69.38;28.08;;;7.50;99.90;;;;;;4961145;28;20037;-85
2023/12/15 10:33:07;;;;;;;57.45;24.65;;;7.50;99.90;;;;;;4911898;28;20494;-85
2023/12/15 10:35:58;;;;;;;51.50;20.75;;;7.60;99.90;;;;;;4944621;28;20030;-86
2023/12/15 10:39:00;;;;;;;48.92;18.00;;;7.60;99.90;;;;;;4993819;28;20099;-86
2023/12/15 10:41:31;;;;;;;57.85;23.23;;;7.60;99.90;;;;;;4994625;28;20035;-85
2023/12/15 10:44:24;;;;;;;61.13;24.00;;;7.60;99.90;;;;;;4932254;28;20049;-85
2023/12/15 10:47:09;;;;;;;56.90;21.42;;;7.60;99.90;;;;;;4959502;28;20034;-85
2023/12/15 10:50:15;;;;;;;67.50;22.83;;;7.80;99.90;;;;;;4952063;28;20091;-85
2023/12/15 10:52:57;;;;;;;55.03;22.80;;;7.70;99.90;;;;;;5017181;28;20422;-85
2023/12/15 10:55:28;;;;;;;59.33;23.95;;;7.80;99.90;;;;;;4983306;28;20221;-85
2023/12/15 10:58:01;;;;;;;58.75;23.55;;;7.90;99.90;;;;;;5024563;28;20490;-84
2023/12/15 11:01:20;;;;;;;;;;;;;;;;;;;;;
2023/12/15 11:04:39;;;;;;;58.42;22.73;;;7.90;99.90;;;;;;4977827;28;20038;-85
2023/12/15 11:07:04;;;;;;;40.85;15.23;;;7.90;99.90;;;;;;5025469;23;20148;-84
2023/12/15 11:10:24;;;;;;;58.70;19.77;;;8.00;99.90;;;;;;4953355;28;20625;-85
2023/12/15 11:26:04;;;;;;;59.00;23.30;;;8.10;99.90;;;;;;4899594;28;20107;-86
2023/12/15 11:29:23;;;;;;;52.05;21.00;;;8.20;99.90;;;;;;4882669;29;20456;-86
2023/12/15 11:49:42;;;;;;;;;;;;;;;;;;;;;
2023/12/15 11:56:04;;;;;;;42.95;17.73;;;8.50;99.90;;;;;;4822354;29;20059;-88
2023/12/15 12:02:53;;;;;;;;;;;;;;;;;;;;;
2023/12/15 12:06:20;;;;;;;;;;;;;;;;;;;;;
2023/12/15 12:08:58;;;;;;;41.15;13.70;;;8.60;99.90;;;;;;4934732;28;20624;-88
2023/12/15 12:11:26;;;;;;;54.58;22.17;;;8.70;99.90;;;;;;4938538;28;22150;-87
2023/12/15 12:14:38;;;;;;;52.13;24.20;;;8.60;99.90;;;;;;4936379;28;20400;-88
2023/12/15 12:17:03;;;;;;;31.98;14.32;;;8.50;99.90;;;;;;4980157;28;20026;-89
2023/12/15 12:23:08;;;;;;;36.85;16.88;;;8.60;99.90;;;;;;4968215;28;20094;-88
2023/12/15 12:28:40;;;;;;;29.48;11.15;;;8.60;99.90;;;;;;4962605;28;20042;-89
2023/12/15 12:31:11;;;;;;;60.25;21.55;;;8.60;99.90;;;;;;4931721;28;20060;-88
2023/12/15 12:33:43;;;;;;;56.60;23.30;;;8.60;99.90;;;;;;4986084;28;20691;-90
2023/12/15 12:36:16;;;;;;;50.25;23.20;;;8.70;99.90;;;;;;5001029;28;20105;-89
2023/12/15 12:38:53;;;;;;;42.70;16.83;;;8.70;99.90;;;;;;4983324;28;20060;-90
2023/12/15 12:41:23;;;;;;;59.17;26.13;;;8.60;99.90;;;;;;4968948;28;20045;-90
2023/12/15 12:43:57;;;;;;;50.55;19.70;;;8.40;99.90;;;;;;4970541;28;20046;-90
2023/12/15 12:46:23;;;;;;;59.13;25.15;;;8.60;99.90;;;;;;4976338;28;20126;-92
2023/12/15 12:48:51;;;;;;;51.35;20.63;;;8.80;99.90;;;;;;4995844;28;20497;-93
2023/12/15 12:51:27;;;;;;;55.70;22.25;;;8.80;99.90;;;;;;4956942;28;20041;-89
2023/12/15 12:54:14;;;;;;;49.40;22.55;;;8.70;99.90;;;;;;4974180;28;20045;-90
2023/12/15 12:57:10;;;;;;;;;;;;;;;;;;;;;
2023/12/15 13:03:45;;;;;;;36.95;16.65;;;8.80;99.90;;;;;;4924260;28;20029;-91
2023/12/15 13:46:19;;;;;;;45.80;17.45;;;8.80;99.90;;;;;;5009202;28;20045;-89
2023/12/15 13:48:54;;;;;;;47.75;18.08;;;8.80;99.90;;;;;;5010872;28;20480;-89
2023/12/15 13:51:38;;;;;;;50.72;19.10;;;8.80;99.90;;;;;;4999108;28;20045;-90
2023/12/15 13:54:24;;;;;;;51.25;18.13;;;8.80;99.90;;;;;;4922317;28;20047;-89
2023/12/15 13:57:18;;;;;;;;;;;;;;;;;;;;;
2023/12/15 13:59:44;;;;;;;36.15;13.95;;;8.80;99.90;;;;;;4959681;28;20042;-90
2023/12/15 14:02:42;;;;;;;;;;;;;;;;;;;;;
2023/12/15 14:24:02;;;;;;;57.60;21.05;;;8.60;99.90;;;;;;5000948;23;20045;-87
2023/12/15 14:26:56;;;;;;;65.05;25.17;;;8.60;99.90;;;;;;4981758;28;20045;-87
2023/12/15 14:29:24;;;;;;;38.05;15.88;;;8.70;99.90;;;;;;4973596;28;20034;-87
2023/12/15 14:31:51;;;;;;;58.15;23.00;;;8.60;99.90;;;;;;4987566;28;20136;-86
2023/12/15 14:34:16;;;;;;;75.78;29.30;;;8.60;99.90;;;;;;4971200;28;20038;-88
2023/12/15 14:36:45;;;;;;;63.03;24.42;;;8.70;99.90;;;;;;4964109;28;20041;-89
2023/12/15 14:39:11;;;;;;;49.53;20.60;;;8.70;99.90;;;;;;4980460;28;20105;-85
2023/12/15 14:45:26;;;;;;;25.52;7.90;;;8.50;99.90;;;;;;5008515;28;20056;-88
2023/12/15 14:51:33;;;;;;;47.88;16.58;;;8.50;99.90;;;;;;5015121;28;20180;-87
2023/12/15 14:53:59;;;;;;;54.72;23.25;;;8.40;99.90;;;;;;4957760;28;20079;-87
2023/12/15 14:56:35;;;;;;;;;;;;;;;;;;;;;
2023/12/15 14:59:07;;;;;;;55.65;22.05;;;8.40;99.90;;;;;;4949206;28;20044;-87
2023/12/15 15:01:41;;;;;;;40.60;17.30;;;8.40;99.90;;;;;;4943674;28;20034;-85
2023/12/15 15:04:09;;;;;;;57.03;20.70;;;8.40;99.90;;;;;;4956823;28;20103;-86
2023/12/15 15:06:51;;;;;;;46.95;19.00;;;8.40;99.90;;;;;;4964345;28;20037;-88
2023/12/15 15:09:19;;;;;;;57.65;24.58;;;8.30;99.90;;;;;;4940651;28;20053;-83
2023/12/15 15:11:46;;;;;;;53.63;22.42;;;8.40;99.90;;;;;;4958748;28;20022;-83
2023/12/15 15:14:24;;;;;;;50.03;21.67;;;8.30;99.90;;;;;;4958844;28;20034;-83
2023/12/15 15:16:50;;;;;;;56.65;21.05;;;8.20;99.90;;;;;;4976709;28;20042;-83
2023/12/15 15:19:16;;;;;;;61.25;24.00;;;8.20;99.90;;;;;;4969144;28;20549;-83
2023/12/15 15:21:53;;;;;;;51.50;22.65;;;8.20;99.90;;;;;;4969053;28;20434;-82
2023/12/15 15:24:28;;;;;;;53.03;22.17;;;8.20;99.90;;;;;;4972807;28;20410;-83
2023/12/15 15:27:00;;;;;;;50.45;20.92;;;8.20;99.90;;;;;;4962447;28;20168;-83
2023/12/15 15:29:27;;;;;;;53.10;21.65;;;8.20;99.90;;;;;;4958471;28;20682;-83
2023/12/15 15:31:55;;;;;;;57.72;21.35;;;8.10;99.90;;;;;;4964305;28;20084;-82
2023/12/15 15:34:27;;;;;;;55.67;22.30;;;8.10;99.90;;;;;;4952553;28;20452;-83
2023/12/15 15:37:12;;;;;;;48.95;22.20;;;8.20;99.90;;;;;;4950466;28;20034;-83
2023/12/15 15:39:45;;;;;;;55.30;21.27;;;8.20;99.90;;;;;;4947962;28;20516;-82
2023/12/15 15:42:51;;;;;;;50.30;21.25;;;8.10;99.90;;;;;;4939698;28;20552;-84
2023/12/15 15:45:25;;;;;;;53.28;20.10;;;8.20;99.90;;;;;;4983948;28;20552;-83
2023/12/15 15:48:30;;;;;;;59.28;21.27;;;8.10;99.90;;;;;;4949674;28;20505;-83
2023/12/15 15:50:56;;;;;;;50.97;22.90;;;8.20;99.90;;;;;;4976011;28;20034;-83